createdAt,value
2023-01-21T00:00:40.909Z,74.25
2023-01-21T00:03:07.507Z,67.75
2023-01-21T00:05:34.149Z,87.15
2023-01-21T00:08:02.647Z,75.35
2023-01-21T00:10:29.373Z,76.60
2023-01-21T00:12:55.968Z,74.55
2023-01-21T00:15:22.482Z,83.93
2023-01-21T00:17:49.173Z,76.90
2023-01-21T00:20:16.365Z,73.55
2023-01-21T00:22:43.221Z,83.65
2023-01-21T00:25:09.818Z,89.00
2023-01-21T00:27:36.524Z,70.13
2023-01-21T00:30:03.288Z,73.53
2023-01-21T00:32:29.843Z,74.07
2023-01-21T00:34:56.414Z,83.72
2023-01-21T00:37:24.322Z,82.65
2023-01-21T00:39:50.880Z,74.45
2023-01-21T00:42:17.425Z,83.68
2023-01-21T00:44:43.964Z,73.07
2023-01-21T00:47:10.454Z,88.10
2023-01-21T00:49:37.112Z,85.78
2023-01-21T00:52:03.689Z,68.88
2023-01-21T00:54:32.502Z,85.57
2023-01-21T00:56:59.228Z,70.25
2023-01-21T00:59:28.215Z,93.38
2023-01-21T01:01:55.155Z,101.90
2023-01-21T01:04:22.909Z,82.55
2023-01-21T01:06:49.638Z,76.65
2023-01-21T01:09:16.237Z,110.53
2023-01-21T01:11:42.869Z,94.88
2023-01-21T01:14:09.445Z,103.18
2023-01-21T01:16:35.915Z,103.57
2023-01-21T01:19:02.622Z,101.63
2023-01-21T01:21:29.146Z,101.75
2023-01-21T01:23:57.590Z,104.15
2023-01-21T01:26:24.222Z,97.18
2023-01-21T01:28:50.902Z,84.57
2023-01-21T01:31:18.487Z,102.85
2023-01-21T01:33:45.135Z,95.35
2023-01-21T01:36:16.110Z,103.07
2023-01-21T01:38:42.686Z,108.10
2023-01-21T01:41:13.066Z,103.63
2023-01-21T01:43:53.601Z,111.32
2023-01-21T01:46:21.016Z,105.03
2023-01-21T01:48:51.152Z,112.90
2023-01-21T01:51:19.921Z,112.03
2023-01-21T01:53:47.277Z,112.13
2023-01-21T01:56:14.928Z,114.35
2023-01-21T01:58:42.462Z,105.55
2023-01-21T02:01:09.049Z,121.95
2023-01-21T02:03:50.625Z,117.25
2023-01-21T02:06:17.690Z,152.75
2023-01-21T02:08:44.677Z,121.60
2023-01-21T02:11:11.954Z,119.43
2023-01-21T02:13:38.477Z,126.13
2023-01-21T02:16:24.866Z,151.25
2023-01-21T02:19:10.481Z,144.32
2023-01-21T02:21:55.948Z,138.55
2023-01-21T02:24:22.380Z,150.88
2023-01-21T02:27:18.574Z,126.72
2023-01-21T02:29:45.056Z,116.70
2023-01-21T02:32:14.661Z,116.50
2023-01-21T02:34:52.340Z,97.90
2023-01-21T02:37:28.098Z,102.75
2023-01-21T02:40:03.028Z,114.30
2023-01-21T02:42:37.096Z,105.47
2023-01-21T02:45:15.791Z,114.97
2023-01-21T02:47:56.152Z,124.13
2023-01-21T02:50:27.747Z,111.18
2023-01-21T02:52:57.926Z,119.60
2023-01-21T02:55:27.648Z,112.50
2023-01-21T02:57:56.367Z,109.90
2023-01-21T03:00:39.350Z,105.90
2023-01-21T03:03:21.157Z,106.68
2023-01-21T03:06:06.556Z,107.50
2023-01-21T03:08:47.961Z,118.15
2023-01-21T03:11:15.701Z,85.38
2023-01-21T03:14:10.295Z,104.32
2023-01-21T03:16:58.278Z,102.85
2023-01-21T03:19:37.043Z,105.18
2023-01-21T03:22:08.368Z,116.60
2023-01-21T03:24:35.271Z,115.75
2023-01-21T03:27:02.756Z,122.97
2023-01-21T03:29:30.147Z,122.22
2023-01-21T03:31:58.543Z,104.10
2023-01-21T03:34:26.836Z,101.72
2023-01-21T03:37:04.902Z,101.07
2023-01-21T03:39:43.828Z,99.43
2023-01-21T03:42:10.799Z,119.63
2023-01-21T03:44:37.867Z,98.65
2023-01-21T03:47:29.633Z,117.78
2023-01-21T03:49:56.185Z,125.75
2023-01-21T03:52:24.108Z,101.07
2023-01-21T03:54:50.661Z,113.10
2023-01-21T03:57:17.241Z,107.47
2023-01-21T03:59:44.160Z,116.72
2023-01-21T04:02:11.055Z,119.30
2023-01-21T04:04:37.645Z,124.10
2023-01-21T04:07:04.256Z,111.85
2023-01-21T04:09:30.786Z,119.70
2023-01-21T04:11:58.412Z,122.53
2023-01-21T04:14:25.070Z,123.18
2023-01-21T04:16:51.641Z,116.88
2023-01-21T04:19:18.191Z,129.13
2023-01-21T04:21:44.822Z,122.88
2023-01-21T04:24:11.348Z,134.20
2023-01-21T04:26:37.999Z,136.57
2023-01-21T04:29:04.640Z,134.60
2023-01-21T04:31:31.179Z,137.63
2023-01-21T04:33:57.964Z,173.02
2023-01-21T04:36:24.523Z,137.50
2023-01-21T04:38:51.041Z,148.32
2023-01-21T04:41:17.529Z,143.25
2023-01-21T04:43:44.086Z,143.27
2023-01-21T04:46:10.813Z,137.95
2023-01-21T04:48:37.392Z,125.32
2023-01-21T04:51:04.151Z,115.53
2023-01-21T04:53:30.708Z,110.63
2023-01-21T04:55:57.219Z,118.50
2023-01-21T04:58:23.906Z,122.05
2023-01-21T05:00:50.564Z,120.38
2023-01-21T05:03:17.085Z,121.97
2023-01-21T05:05:43.659Z,106.93
2023-01-21T05:08:10.234Z,134.18
2023-01-21T05:10:36.901Z,129.32
2023-01-21T05:13:03.881Z,152.60
2023-01-21T05:15:30.628Z,127.32
2023-01-21T05:17:57.275Z,138.63
2023-01-21T05:20:23.846Z,151.02
2023-01-21T05:22:50.748Z,127.88
2023-01-21T05:25:17.345Z,158.32
2023-01-21T05:27:43.817Z,139.48
2023-01-21T05:30:10.895Z,128.05
2023-01-21T05:32:37.642Z,125.68
2023-01-21T05:35:04.471Z,124.00
2023-01-21T05:37:31.208Z,125.38
2023-01-21T05:39:57.760Z,127.50
2023-01-21T05:42:24.406Z,120.88
2023-01-21T05:44:51.035Z,144.95
2023-01-21T05:47:17.560Z,156.48
2023-01-21T05:49:44.292Z,171.25
2023-01-21T05:52:11.007Z,128.32
2023-01-21T05:54:37.623Z,150.20
2023-01-21T05:57:04.230Z,132.50
2023-01-21T05:59:31.011Z,172.30
2023-01-21T06:01:57.504Z,166.60
2023-01-21T06:04:28.493Z,188.45
2023-01-21T06:06:55.052Z,178.90
2023-01-21T06:09:21.616Z,195.63
2023-01-21T06:11:48.165Z,171.65
2023-01-21T06:14:14.769Z,140.70
2023-01-21T06:16:41.335Z,137.48
2023-01-21T06:19:07.810Z,135.35
2023-01-21T06:21:34.433Z,137.20
2023-01-21T06:24:02.491Z,150.10
2023-01-21T06:26:29.014Z,145.95
2023-01-21T06:28:56.837Z,142.32
2023-01-21T06:31:23.790Z,164.13
2023-01-21T06:33:50.406Z,158.25
2023-01-21T06:36:17.131Z,143.55
2023-01-21T06:38:43.711Z,169.95
2023-01-21T06:41:10.270Z,144.48
2023-01-21T06:43:36.840Z,150.30
2023-01-21T06:46:03.483Z,141.02
2023-01-21T06:48:30.091Z,156.43
2023-01-21T06:50:56.617Z,134.00
2023-01-21T06:53:23.140Z,146.95
2023-01-21T06:55:49.692Z,141.55
2023-01-21T06:58:16.205Z,134.88
2023-01-21T07:00:42.762Z,119.90
2023-01-21T07:03:09.384Z,186.38
2023-01-21T07:05:35.948Z,98.25
2023-01-21T07:08:02.750Z,246.00
2023-01-21T07:10:29.311Z,115.95
2023-01-21T07:12:55.989Z,105.47
2023-01-21T07:15:22.547Z,116.32
2023-01-21T07:17:49.067Z,183.18
2023-01-21T07:20:15.779Z,83.07
2023-01-21T07:22:42.601Z,203.30
2023-01-21T07:25:09.396Z,204.57
2023-01-21T07:27:36.197Z,172.27
2023-01-21T07:30:02.801Z,179.52
2023-01-21T07:32:29.627Z,474.48
2023-01-21T07:34:56.183Z,123.60
2023-01-21T07:37:22.774Z,112.90
2023-01-21T07:39:49.435Z,140.60
2023-01-21T07:42:16.072Z,122.00
2023-01-21T07:44:42.788Z,118.38
2023-01-21T07:47:10.447Z,177.45
2023-01-21T07:49:37.661Z,116.85
2023-01-21T07:52:04.283Z,308.95
2023-01-21T07:54:30.881Z,144.82
2023-01-21T07:56:57.782Z,135.13
2023-01-21T07:59:24.445Z,120.00
2023-01-21T08:01:51.307Z,111.93
2023-01-21T08:04:18.009Z,148.63
2023-01-21T08:06:44.552Z,141.13
2023-01-21T08:09:11.320Z,160.68
2023-01-21T08:11:37.861Z,144.27
2023-01-21T08:14:04.484Z,124.00
2023-01-21T08:16:31.257Z,141.07
2023-01-21T08:18:57.779Z,168.38
2023-01-21T08:21:24.291Z,160.82
2023-01-21T08:23:50.969Z,156.68
2023-01-21T08:26:17.577Z,182.85
2023-01-21T08:28:44.121Z,154.93
2023-01-21T08:31:12.070Z,150.40
2023-01-21T08:33:39.072Z,140.35
2023-01-21T08:36:06.709Z,128.00
2023-01-21T08:38:34.145Z,120.95
2023-01-21T08:41:00.752Z,163.70
2023-01-21T08:43:27.504Z,369.00
2023-01-21T08:45:58.743Z,519.78
2023-01-21T08:48:25.483Z,372.90
2023-01-21T08:50:52.229Z,297.77
2023-01-21T08:53:19.096Z,119.82
2023-01-21T08:55:45.639Z,196.38
2023-01-21T08:58:12.178Z,69.15
2023-01-21T09:00:38.820Z,91.45
2023-01-21T09:03:05.565Z,86.63
2023-01-21T09:05:32.308Z,88.70
2023-01-21T09:07:59.007Z,78.10
2023-01-21T09:10:44.432Z,87.22
2023-01-21T09:13:10.962Z,80.30
2023-01-21T09:15:41.855Z,86.38
2023-01-21T09:18:08.765Z,80.97
2023-01-21T09:20:35.712Z,86.75
2023-01-21T09:23:02.332Z,83.40
2023-01-21T09:25:29.015Z,90.60
2023-01-21T09:27:55.649Z,102.72
2023-01-21T09:30:22.214Z,92.85
2023-01-21T09:32:48.990Z,98.13
2023-01-21T09:35:15.838Z,98.88
2023-01-21T09:37:42.579Z,102.70
2023-01-21T09:40:15.753Z,99.47
2023-01-21T09:42:42.794Z,97.20
2023-01-21T09:45:11.323Z,103.00
2023-01-21T09:47:39.952Z,94.25
2023-01-21T09:50:14.555Z,98.15
2023-01-21T09:52:47.332Z,101.45
2023-01-21T09:55:13.844Z,95.22
2023-01-21T09:57:59.456Z,85.88
2023-01-21T10:00:31.305Z,92.88
2023-01-21T10:03:00.924Z,90.53
2023-01-21T10:05:41.740Z,88.70
2023-01-21T10:08:08.353Z,87.55
2023-01-21T10:10:46.645Z,94.70
2023-01-21T10:13:16.138Z,99.78
2023-01-21T10:15:51.884Z,96.00
2023-01-21T10:18:38.113Z,94.93
2023-01-21T10:21:08.819Z,111.95
2023-01-21T10:23:39.527Z,112.95
2023-01-21T10:26:08.528Z,93.68
2023-01-21T10:28:38.257Z,96.25
2023-01-21T10:31:11.654Z,95.97
2023-01-21T10:33:38.262Z,94.72
2023-01-21T10:36:19.083Z,77.63
2023-01-21T10:38:48.764Z,77.22
2023-01-21T10:41:27.501Z,71.45
2023-01-21T10:44:19.126Z,76.85
2023-01-21T10:46:51.120Z,66.22
2023-01-21T10:49:23.270Z,63.90
2023-01-21T10:51:53.431Z,56.55
2023-01-21T10:54:29.121Z,59.85
2023-01-21T10:56:55.662Z,52.65
2023-01-21T10:59:24.308Z,68.90
2023-01-21T11:01:53.430Z,68.15
2023-01-21T11:04:21.640Z,65.50
2023-01-21T11:06:57.438Z,65.72
2023-01-21T11:09:25.296Z,67.82
2023-01-21T11:11:51.812Z,63.58
2023-01-21T11:14:21.107Z,57.72
2023-01-21T11:16:49.335Z,58.85
2023-01-21T11:19:18.036Z,71.30
2023-01-21T11:22:17.268Z,75.10
2023-01-21T11:24:45.145Z,71.68
2023-01-21T11:27:22.219Z,59.40
2023-01-21T11:29:49.807Z,73.05
2023-01-21T11:32:18.471Z,72.00
2023-01-21T11:34:46.032Z,69.90
2023-01-21T11:37:21.171Z,66.60
2023-01-21T11:39:51.462Z,72.40
2023-01-21T11:42:18.902Z,76.80
2023-01-21T11:44:54.725Z,95.97
2023-01-21T11:47:28.841Z,71.70
2023-01-21T11:50:01.905Z,67.60
2023-01-21T11:52:28.486Z,68.10
2023-01-21T11:54:55.201Z,72.80
2023-01-21T11:57:29.936Z,83.13
2023-01-21T11:59:59.370Z,71.90
2023-01-21T12:02:29.382Z,75.50
2023-01-21T12:04:59.184Z,76.63
2023-01-21T12:07:28.055Z,76.35
2023-01-21T12:10:08.424Z,79.80
2023-01-21T12:12:41.334Z,81.57
2023-01-21T12:15:19.707Z,76.73
2023-01-21T12:18:08.814Z,73.83
2023-01-21T12:20:45.187Z,89.27
2023-01-21T12:23:11.779Z,92.13
2023-01-21T12:25:44.065Z,87.47
2023-01-21T12:28:30.480Z,87.70
2023-01-21T12:31:00.156Z,76.80
2023-01-21T12:33:29.848Z,84.50
2023-01-21T12:36:01.409Z,84.00
2023-01-21T12:38:31.483Z,86.83
2023-01-21T12:41:01.236Z,74.60
2023-01-21T12:43:33.000Z,75.13
2023-01-21T12:46:10.471Z,79.53
2023-01-21T12:48:44.576Z,76.47
2023-01-21T12:51:14.352Z,70.30
2023-01-21T12:53:52.162Z,76.30
2023-01-21T12:56:24.844Z,79.40
2023-01-21T12:58:51.537Z,67.47
2023-01-21T13:01:33.479Z,83.53
2023-01-21T13:04:04.937Z,71.77
2023-01-21T13:06:53.522Z,68.20
2023-01-21T13:09:23.648Z,78.17
2023-01-21T13:11:52.574Z,71.73
2023-01-21T13:14:22.279Z,65.97
2023-01-21T13:16:51.581Z,74.77
2023-01-21T13:19:18.193Z,80.80
2023-01-21T13:21:47.753Z,81.23
2023-01-21T13:24:14.869Z,67.17
2023-01-21T13:26:41.398Z,83.90
2023-01-21T13:29:21.345Z,80.80
2023-01-21T13:32:06.949Z,68.83
2023-01-21T13:34:56.752Z,74.27
2023-01-21T13:37:32.393Z,69.07
2023-01-21T13:40:17.968Z,75.97
2023-01-21T13:42:50.256Z,67.97
2023-01-21T13:45:35.669Z,81.63
2023-01-21T13:48:20.994Z,82.57
2023-01-21T13:50:59.839Z,68.30
2023-01-21T13:53:29.684Z,75.27
2023-01-21T13:55:59.312Z,79.63
2023-01-21T13:58:35.705Z,81.18
2023-01-21T14:01:05.805Z,75.20
2023-01-21T14:03:37.309Z,96.63
2023-01-21T14:06:08.432Z,86.28
2023-01-21T14:08:49.892Z,87.68
2023-01-21T14:11:25.681Z,88.95
2023-01-21T14:14:04.826Z,94.82
2023-01-21T14:16:31.522Z,88.13
2023-01-21T14:19:07.181Z,82.15
2023-01-21T14:21:53.625Z,74.40
2023-01-21T14:24:35.587Z,86.30
2023-01-21T14:27:10.256Z,93.50
2023-01-21T14:29:40.942Z,82.20
2023-01-21T14:32:28.452Z,92.70
2023-01-21T14:35:13.944Z,88.63
2023-01-21T14:38:07.044Z,84.55
2023-01-21T14:40:34.925Z,78.03
2023-01-21T14:43:01.627Z,87.60
2023-01-21T14:45:47.048Z,85.57
2023-01-21T14:48:32.646Z,97.32
2023-01-21T14:51:05.448Z,79.27
2023-01-21T14:53:33.168Z,98.35
2023-01-21T14:56:07.487Z,88.78
2023-01-21T14:58:36.020Z,85.60
2023-01-21T15:01:04.457Z,84.78
2023-01-21T15:03:31.468Z,81.85
2023-01-21T15:06:00.563Z,81.57
2023-01-21T15:08:29.290Z,79.97
2023-01-21T15:10:58.907Z,80.80
2023-01-21T15:13:34.954Z,76.78
2023-01-21T15:16:04.786Z,90.10
2023-01-21T15:18:39.704Z,84.80
2023-01-21T15:21:25.297Z,83.93
2023-01-21T15:23:51.903Z,77.15
2023-01-21T15:26:19.821Z,65.47
2023-01-21T15:28:56.186Z,74.40
2023-01-21T15:31:23.800Z,69.15
2023-01-21T15:33:50.599Z,79.65
2023-01-21T15:36:20.440Z,77.78
2023-01-21T15:38:48.084Z,74.68
2023-01-21T15:41:23.745Z,83.90
2023-01-21T15:44:10.963Z,69.93
2023-01-21T15:46:44.557Z,70.80
2023-01-21T15:49:26.498Z,60.80
2023-01-21T15:52:13.468Z,55.22
2023-01-21T15:54:51.715Z,70.05
2023-01-21T15:57:18.228Z,57.88
2023-01-21T16:00:03.782Z,68.50
2023-01-21T16:02:32.973Z,61.83
2023-01-21T16:05:02.778Z,52.20
2023-01-21T16:07:33.803Z,52.60
2023-01-21T16:10:03.396Z,57.10
2023-01-21T16:12:39.277Z,57.08
2023-01-21T16:15:05.905Z,55.45
2023-01-21T16:17:35.696Z,49.45
2023-01-21T16:20:04.601Z,42.10
2023-01-21T16:22:33.375Z,52.13
2023-01-21T16:25:07.403Z,46.45
2023-01-21T16:27:35.295Z,43.97
2023-01-21T16:30:03.511Z,44.13
2023-01-21T16:32:30.891Z,45.00
2023-01-21T16:34:57.861Z,44.72
2023-01-21T16:37:25.137Z,44.42
2023-01-21T16:39:56.384Z,42.10
2023-01-21T16:42:23.005Z,44.20
2023-01-21T16:44:49.852Z,41.53
2023-01-21T16:47:20.338Z,46.30
2023-01-21T16:49:46.976Z,46.05
2023-01-21T16:52:15.204Z,47.20
2023-01-21T16:54:47.324Z,57.50
2023-01-21T16:57:16.966Z,48.00
2023-01-21T16:59:48.384Z,45.67
2023-01-21T17:02:29.178Z,47.28
2023-01-21T17:04:59.332Z,47.88
2023-01-21T17:07:37.917Z,60.40
2023-01-21T17:10:04.590Z,53.25
2023-01-21T17:12:32.868Z,56.30
2023-01-21T17:15:20.642Z,53.47
2023-01-21T17:17:47.314Z,52.60
2023-01-21T17:20:32.421Z,61.10
2023-01-21T17:23:03.404Z,50.03
2023-01-21T17:25:30.159Z,57.22
2023-01-21T17:27:56.827Z,55.53
2023-01-21T17:30:23.330Z,55.97
2023-01-21T17:33:00.755Z,53.88
2023-01-21T17:35:28.594Z,53.10
2023-01-21T17:37:59.958Z,58.67
2023-01-21T17:40:32.729Z,55.78
2023-01-21T17:43:01.446Z,55.15
2023-01-21T17:45:30.059Z,58.00
2023-01-21T17:48:14.704Z,52.55
2023-01-21T17:50:45.186Z,53.17
2023-01-21T17:53:17.934Z,55.42
2023-01-21T17:55:54.645Z,52.25
2023-01-21T17:58:35.132Z,54.35
2023-01-21T18:01:03.518Z,50.53
2023-01-21T18:03:32.993Z,50.70
2023-01-21T18:05:59.690Z,50.75
2023-01-21T18:08:26.404Z,45.70
2023-01-21T18:10:53.932Z,46.08
2023-01-21T18:13:21.411Z,47.22
2023-01-21T18:15:54.225Z,42.80
2023-01-21T18:18:24.450Z,46.70
2023-01-21T18:20:51.047Z,52.42
2023-01-21T18:23:18.294Z,44.17
2023-01-21T18:25:48.842Z,50.05
2023-01-21T18:28:19.706Z,51.05
2023-01-21T18:30:46.674Z,52.63
2023-01-21T18:33:13.450Z,44.53
2023-01-21T18:35:43.735Z,53.50
2023-01-21T18:38:33.513Z,48.95
2023-01-21T18:41:00.175Z,43.55
2023-01-21T18:43:26.743Z,49.88
2023-01-21T18:45:54.472Z,52.67
2023-01-21T18:48:23.003Z,46.50
2023-01-21T18:50:49.576Z,44.00
2023-01-21T18:53:16.179Z,46.63
2023-01-21T18:55:44.228Z,57.33
2023-01-21T18:58:16.839Z,50.15
2023-01-21T19:00:43.535Z,54.63
2023-01-21T19:03:13.223Z,54.80
2023-01-21T19:05:40.594Z,58.83
2023-01-21T19:08:24.546Z,54.75
2023-01-21T19:10:51.406Z,52.97
2023-01-21T19:13:18.499Z,59.05
2023-01-21T19:15:46.590Z,52.40
2023-01-21T19:18:14.179Z,48.58
2023-01-21T19:20:41.787Z,61.42
2023-01-21T19:23:16.140Z,68.65
2023-01-21T19:25:45.456Z,76.93
2023-01-21T19:28:13.454Z,74.15
2023-01-21T19:30:45.263Z,56.92
2023-01-21T19:33:12.663Z,60.67
2023-01-21T19:35:46.001Z,69.88
2023-01-21T19:38:17.795Z,60.22
2023-01-21T19:40:45.885Z,67.05
2023-01-21T19:43:13.718Z,59.40
2023-01-21T19:45:40.749Z,63.53
2023-01-21T19:48:18.560Z,58.17
2023-01-21T19:50:45.399Z,53.20
2023-01-21T19:53:16.422Z,61.35
2023-01-21T19:55:43.802Z,54.72
2023-01-21T19:58:15.529Z,53.78
2023-01-21T20:00:42.326Z,58.30
2023-01-21T20:03:10.821Z,51.25
2023-01-21T20:05:37.426Z,60.33
2023-01-21T20:08:04.066Z,52.38
2023-01-21T20:10:31.253Z,70.47
2023-01-21T20:12:58.789Z,63.10
2023-01-21T20:15:29.910Z,63.90
2023-01-21T20:17:57.759Z,65.78
2023-01-21T20:20:25.884Z,58.95
2023-01-21T20:22:52.569Z,61.58
2023-01-21T20:25:20.871Z,60.00
2023-01-21T20:28:10.783Z,67.40
2023-01-21T20:30:37.651Z,72.75
2023-01-21T20:33:04.401Z,62.40
2023-01-21T20:35:31.060Z,70.18
2023-01-21T20:37:59.008Z,58.72
2023-01-21T20:40:27.119Z,64.13
2023-01-21T20:42:54.422Z,60.30
2023-01-21T20:45:28.556Z,65.28
2023-01-21T20:47:56.699Z,52.35
2023-01-21T20:50:24.617Z,54.97
2023-01-21T20:52:52.642Z,73.60
2023-01-21T20:55:21.280Z,75.10
2023-01-21T20:57:48.300Z,66.28
2023-01-21T21:00:36.003Z,61.45
2023-01-21T21:03:02.743Z,64.72
2023-01-21T21:05:29.616Z,59.95
2023-01-21T21:07:56.306Z,61.08
2023-01-21T21:10:25.311Z,65.68
2023-01-21T21:12:52.253Z,65.47
2023-01-21T21:15:19.809Z,56.67
2023-01-21T21:17:49.512Z,96.40
2023-01-21T21:20:21.141Z,96.97
2023-01-21T21:22:48.014Z,80.43
2023-01-21T21:25:16.390Z,63.70
2023-01-21T21:27:43.944Z,81.53
2023-01-21T21:30:30.639Z,71.97
2023-01-21T21:32:58.272Z,75.38
2023-01-21T21:35:26.926Z,76.30
2023-01-21T21:37:54.663Z,96.45
2023-01-21T21:40:21.923Z,79.38
2023-01-21T21:43:07.457Z,84.63
2023-01-21T21:45:35.624Z,82.78
2023-01-21T21:48:20.761Z,82.88
2023-01-21T21:50:54.370Z,82.22
2023-01-21T21:53:21.019Z,85.63
2023-01-21T21:55:47.768Z,75.63
2023-01-21T21:58:14.384Z,80.30
2023-01-21T22:00:41.249Z,84.78
2023-01-21T22:03:10.493Z,82.35
2023-01-21T22:05:37.885Z,96.78
2023-01-21T22:08:04.631Z,89.80
2023-01-21T22:10:31.291Z,87.40
2023-01-21T22:12:57.871Z,90.47
2023-01-21T22:15:24.785Z,92.03
2023-01-21T22:17:51.456Z,85.15
2023-01-21T22:20:18.140Z,84.88
2023-01-21T22:22:45.133Z,81.07
2023-01-21T22:25:11.937Z,96.07
2023-01-21T22:27:38.736Z,88.80
2023-01-21T22:30:05.642Z,100.80
2023-01-21T22:32:32.276Z,101.60
2023-01-21T22:34:59.025Z,95.70
2023-01-21T22:37:25.745Z,82.22
2023-01-21T22:39:52.417Z,93.28
2023-01-21T22:42:19.397Z,109.55
2023-01-21T22:44:46.023Z,101.43
2023-01-21T22:47:12.719Z,104.22
2023-01-21T22:49:39.655Z,84.40
2023-01-21T22:52:06.269Z,124.65
2023-01-21T22:54:33.039Z,110.93
2023-01-21T22:56:59.868Z,93.03
2023-01-21T22:59:26.583Z,103.15
2023-01-21T23:01:53.361Z,107.13
2023-01-21T23:04:20.117Z,104.63
2023-01-21T23:06:48.859Z,110.45
2023-01-21T23:09:15.864Z,120.05
2023-01-21T23:11:44.823Z,82.65
2023-01-21T23:14:11.604Z,126.68
2023-01-21T23:16:38.491Z,123.13
2023-01-21T23:19:05.024Z,105.10
2023-01-21T23:21:31.634Z,101.97
2023-01-21T23:23:58.404Z,107.22
2023-01-21T23:26:25.086Z,112.30
2023-01-21T23:28:56.063Z,119.85
2023-01-21T23:31:23.580Z,111.05
2023-01-21T23:33:50.880Z,90.53
2023-01-21T23:36:17.826Z,114.88
2023-01-21T23:38:44.535Z,108.30
2023-01-21T23:41:12.709Z,101.45
2023-01-21T23:43:39.568Z,99.22
2023-01-21T23:46:07.359Z,108.93
2023-01-21T23:48:34.011Z,114.55
2023-01-21T23:51:04.677Z,100.28
2023-01-21T23:53:31.546Z,123.07
2023-01-21T23:56:09.386Z,116.30
2023-01-21T23:58:36.349Z,109.22
